APL Coral — WDF6832 — position and weather

sailwx.info

Track history (hours):
 
Tides and Currents Weather Stations Pressure Air Temp Water Temp Dewpoint Dewpoint Depression Visibility Wind Speed Wind Dir Waves Ship Positions

APL Coral

Owner: APL Maritime Ltd., Bethesda, MD. More information available from US FCC via Universal Licensing System and Coast Guard Vessel Documentation Center.

Last reported at 2017-Feb-21 06:00 UTC. Time now 2017-Feb-23 02:36 UTC.
Position N 16°24' E 113°36'.

Length 274 m; draft 9.9 m.

Type: Cargo ship. MMSI: 367478280.

Wind from 090 at 10 knots

Barometer 1016.0 mb
Air temperature 26.0 ° C
Visibility: greater than 10.8 NM
Dewpoint 24.6 ° C
Water temperature 27.0 ° C

Date/timePositionNaut miles runAvg speedWind from/ knotsBaromVisibWave heightAir tempDewpointWater temp
2017-Feb-21 06:00N 16°24' E 113°36'   090 / 101016.010.8 26.024.627.0
2017-Feb-14 06:00N 02°00' E 105°00'7015.3 030 / 181015.0 5.4 27.022.628.0
2017-Feb-14 01:24N 01°15' E 104°06'1214.1
2017-Feb-14 00:34N 01°13' E 103°54'7 7.1
2017-Feb-13 23:32N 01°15' E 103°47'0 0.3
2017-Feb-13 22:32N 01°16' E 103°47'0 0.0
2017-Feb-13 21:32N 01°16' E 103°47'0 0.0
2017-Feb-13 20:32N 01°16' E 103°47'0 0.0
2017-Feb-13 19:32N 01°16' E 103°47'0 0.0
2017-Feb-13 18:32N 01°16' E 103°47'0 0.0
2017-Feb-13 17:32N 01°16' E 103°47'0 0.0
2017-Feb-13 16:26N 01°16' E 103°47'0 0.0
2017-Feb-13 15:32N 01°16' E 103°47'0 0.0
2017-Feb-13 14:32N 01°16' E 103°47'0 0.0
2017-Feb-13 13:32N 01°16' E 103°47'0 0.0
2017-Feb-13 12:29N 01°16' E 103°47'0 0.1
2017-Feb-13 11:33N 01°16' E 103°47'5 5.0
2017-Feb-13 10:33N 01°14' E 103°43'8 8.3
2017-Feb-13 09:33N 01°12' E 103°35'6 6.1
2017-Feb-13 08:33N 01°10' E 103°29'8 7.1
2017-Feb-13 07:30N 01°14' E 103°22'4613.4
2017-Feb-13 04:04N 01°40' E 102°44'1115.1
2017-Feb-13 03:22N 01°45' E 102°35'1215.4
2017-Feb-13 02:34N 01°50' E 102°23'  
Track history (hours):
 
Tides and Currents Weather Stations Pressure Air Temp Water Temp Dewpoint Dewpoint Depression Visibility Wind Speed Wind Dir Waves Ship Positions

APL Coral

Owner: APL Maritime Ltd., Bethesda, MD. More information available from US FCC via Universal Licensing System and Coast Guard Vessel Documentation Center.

Last reported at 2017-Feb-21 06:00 UTC. Time now 2017-Feb-23 02:36 UTC.
Position N 16°24' E 113°36'.

Length 274 m; draft 9.9 m.

Type: Cargo ship. MMSI: 367478280.

Wind from 090 at 10 knots

Barometer 1016.0 mb
Air temperature 26.0 ° C
Visibility: greater than 10.8 NM
Dewpoint 24.6 ° C
Water temperature 27.0 ° C

Date/timePositionNaut miles runAvg speedWind from/ knotsBaromVisibWave heightAir tempDewpointWater temp
2017-Feb-21 06:00N 16°24' E 113°36'   090 / 101016.010.8 26.024.627.0
2017-Feb-14 06:00N 02°00' E 105°00'7015.3 030 / 181015.0 5.4 27.022.628.0
2017-Feb-14 01:24N 01°15' E 104°06'1214.1
2017-Feb-14 00:34N 01°13' E 103°54'7 7.1
2017-Feb-13 23:32N 01°15' E 103°47'0 0.3
2017-Feb-13 22:32N 01°16' E 103°47'0 0.0
2017-Feb-13 21:32N 01°16' E 103°47'0 0.0
2017-Feb-13 20:32N 01°16' E 103°47'0 0.0
2017-Feb-13 19:32N 01°16' E 103°47'0 0.0
2017-Feb-13 18:32N 01°16' E 103°47'0 0.0
2017-Feb-13 17:32N 01°16' E 103°47'0 0.0
2017-Feb-13 16:26N 01°16' E 103°47'0 0.0
2017-Feb-13 15:32N 01°16' E 103°47'0 0.0
2017-Feb-13 14:32N 01°16' E 103°47'0 0.0
2017-Feb-13 13:32N 01°16' E 103°47'0 0.0
2017-Feb-13 12:29N 01°16' E 103°47'0 0.1
2017-Feb-13 11:33N 01°16' E 103°47'5 5.0
2017-Feb-13 10:33N 01°14' E 103°43'8 8.3
2017-Feb-13 09:33N 01°12' E 103°35'6 6.1
2017-Feb-13 08:33N 01°10' E 103°29'8 7.1
2017-Feb-13 07:30N 01°14' E 103°22'4613.4
2017-Feb-13 04:04N 01°40' E 102°44'1115.1
2017-Feb-13 03:22N 01°45' E 102°35'1215.4
2017-Feb-13 02:34N 01°50' E 102°23'  

Dump ship's entire track history